首页
METAR-TAF:

METAR-TAF

机场 :

梅赫拉巴德國際機場

德黑兰, 伊朗

纬度: 35-41N, 经度: 051-21E, 海拔: 1204米

当前天气观测

该预报发布于33分钟前的07:30 UTC
风速10节,风向西
温度 32°C
湿度 17%
气压 1011 hPa
能见度10公里或以上
1500米以下无云,无积雨云

METAR: OIII 230730Z 26010KT CAVOK 32/04 Q1010 A2984

时间: 12:33 (08:03 UTC)

预报

该预报发布于3小时和3分钟前的05:00 UTC
预报有效从23日的 06点(UTC)到 24日的 12点(UTC)
风速6节,风向西转西南
能见度10公里或以上
1500米以下无云,无积雨云
短暂存在
从 23日的 09点(UTC)到 23日的 15点(UTC)
风速16节,风向南转西南
短暂存在
从 24日的 10点(UTC)到 24日的 12点(UTC)
风速16节,风向南转西南

TAF: OIII 230500Z 2306/2412 24003MPS CAVOK TEMPO 2309/2315 21008MPS TEMPO 2410/2412 21008MPS

超过4000个机场的气象观测和天气预报(METAR&TAF报告)。

可查询的气象台以黄色和红色小点在地图上表示。

将鼠标移到小点上方,可查看气象台名称。

然后点击查看天气观测和预报。

如需切换地图:点击带黑十字的绿色按钮放大地图;点击带横线的绿色按钮缩小地图;或者点击绿色箭头查看邻近地区的地图。


METAR-TAF: